Time;durP1;ratioP1;P1;durP2;ratioP2;P2;SDS_P1;SDS_P2;PMS_P1;PMS_P2;Temp;Humidity;BMP_temperature;BMP_pressure;BME280_temperature;BME280_humidity;BME280_pressure;Samples;Min_cycle;Max_cycle;Signal;HPM_P1;HPM_P2
2023/08/26 00:01:34;;;;;;;2.95;1.10;;;;;;;21.64;100.00;97693.59;15290214;19;20082;-78
2023/08/26 00:07:03;;;;;;;2.17;1.00;;;;;;;21.63;100.00;97701.00;15319065;19;20033;-73
2023/08/26 00:12:35;;;;;;;1.17;0.80;;;;;;;21.61;100.00;97688.59;15302426;19;20466;-75
2023/08/26 00:18:00;;;;;;;2.58;1.00;;;;;;;21.60;100.00;97693.28;15274253;19;20633;-76
2023/08/26 00:23:28;;;;;;;2.30;1.05;;;;;;;21.58;100.00;97698.13;15272146;19;20015;-75
2023/08/26 00:28:54;;;;;;;2.03;0.98;;;;;;;21.58;100.00;97691.84;15277486;19;20026;-77
2023/08/26 00:34:19;;;;;;;3.40;1.02;;;;;;;21.52;100.00;97689.00;15280918;19;20031;-78
2023/08/26 00:39:46;;;;;;;2.17;1.05;;;;;;;21.47;100.00;97705.34;15270066;19;20354;-76
2023/08/26 00:45:15;;;;;;;2.78;1.10;;;;;;;21.37;100.00;97702.47;15278256;19;20616;-74
2023/08/26 00:50:45;;;;;;;1.98;1.15;;;;;;;21.31;100.00;97690.59;15274079;19;20114;-73
2023/08/26 00:56:12;;;;;;;4.28;1.20;;;;;;;21.21;100.00;97694.00;15277958;19;20078;-77
2023/08/26 01:01:38;;;;;;;3.00;1.40;;;;;;;20.93;100.00;97734.03;15286348;19;20019;-79
2023/08/26 01:07:04;;;;;;;4.63;1.38;;;;;;;20.75;100.00;97742.47;15279869;19;20360;-77
2023/08/26 01:12:42;;;;;;;2.97;1.50;;;;;;;20.48;100.00;97822.34;15278499;19;20043;-77
2023/08/26 01:18:07;;;;;;;3.20;1.30;;;;;;;20.23;100.00;97880.03;15279786;19;20030;-80
2023/08/26 01:23:46;;;;;;;3.22;1.48;;;;;;;20.08;100.00;97957.06;15278363;19;20022;-79
2023/08/26 01:29:11;;;;;;;6.30;1.60;;;;;;;19.65;100.00;97926.13;15280189;19;20011;-80
2023/08/26 01:34:42;;;;;;;4.55;1.40;;;;;;;19.31;100.00;97910.22;15291333;19;20010;-80
2023/08/26 01:40:13;;;;;;;4.28;1.30;;;;;;;19.09;100.00;97874.38;15301588;19;20014;-79
2023/08/26 01:45:38;;;;;;;4.07;1.15;;;;;;;18.89;100.00;97823.56;15291492;19;20035;-80
2023/08/26 01:51:03;;;;;;;3.00;1.05;;;;;;;18.78;100.00;97797.88;15298438;19;20363;-81
2023/08/26 01:56:30;;;;;;;3.20;1.30;;;;;;;18.71;100.00;97766.28;15299814;19;20014;-82
2023/08/26 02:01:56;;;;;;;5.35;1.35;;;;;;;18.60;100.00;97811.56;15298754;19;20025;-81
2023/08/26 02:07:21;;;;;;;3.05;1.30;;;;;;;18.50;100.00;97805.81;15289891;19;20046;-77
2023/08/26 02:12:55;;;;;;;2.60;1.20;;;;;;;18.44;100.00;97770.19;15284547;19;20127;-78
2023/08/26 02:18:20;;;;;;;1.85;0.98;;;;;;;18.39;100.00;97761.03;15288576;19;20367;-79
2023/08/26 02:23:44;;;;;;;1.75;1.08;;;;;;;18.31;100.00;97767.63;15287189;19;20019;-78
2023/08/26 02:29:11;;;;;;;5.57;1.10;;;;;;;18.04;100.00;97803.38;15279201;19;20018;-80
2023/08/26 02:34:37;;;;;;;2.05;0.95;;;;;;;17.89;100.00;97828.19;15286597;19;20039;-80
2023/08/26 02:40:03;;;;;;;4.60;1.40;;;;;;;17.64;100.00;97852.72;15288017;19;20023;-77
2023/08/26 02:45:31;;;;;;;3.45;1.30;;;;;;;17.55;100.00;97855.72;15282181;19;20367;-80
2023/08/26 02:50:59;;;;;;;2.78;0.90;;;;;;;17.54;100.00;97837.69;15275027;19;20420;-80
2023/08/26 02:56:23;;;;;;;1.67;1.00;;;;;;;17.53;100.00;97856.97;15284514;19;20014;-80
2023/08/26 03:02:07;;;;;;;1.88;0.90;;;;;;;17.54;100.00;97854.03;15280997;19;20023;-79
2023/08/26 03:07:32;;;;;;;2.10;1.02;;;;;;;17.53;100.00;97857.81;15285650;19;20387;-77
2023/08/26 03:13:06;;;;;;;2.92;1.13;;;;;;;17.53;100.00;97874.16;15281759;19;20018;-79
2023/08/26 03:18:37;;;;;;;3.13;1.10;;;;;;;17.52;100.00;97893.44;15287315;19;20022;-79
2023/08/26 03:24:02;;;;;;;2.17;1.10;;;;;;;17.55;100.00;97891.13;15285380;19;20493;-80
2023/08/26 03:29:28;;;;;;;2.90;1.20;;;;;;;17.54;100.00;97949.38;15283289;19;20486;-80
2023/08/26 03:34:55;;;;;;;3.50;1.10;;;;;;;17.54;100.00;97952.09;15281493;19;20024;-78
2023/08/26 03:40:22;;;;;;;3.75;1.20;;;;;;;17.58;100.00;97962.56;15286642;19;20020;-80
2023/08/26 03:45:48;;;;;;;3.40;1.10;;;;;;;17.58;100.00;97973.44;15285927;19;20027;-81
2023/08/26 03:51:17;;;;;;;4.78;1.20;;;;;;;17.59;100.00;97996.88;15289974;19;20103;-78
2023/08/26 03:56:41;;;;;;;3.97;1.02;;;;;;;17.58;100.00;98006.13;15290685;19;20378;-80
2023/08/26 04:02:06;;;;;;;4.13;1.17;;;;;;;17.48;100.00;98045.53;15302880;19;20014;-78
2023/08/26 04:07:34;;;;;;;3.28;1.20;;;;;;;17.46;100.00;98042.22;15304966;19;20019;-79
2023/08/26 04:13:10;;;;;;;3.75;1.55;;;;;;;17.44;100.00;98038.00;15333480;19;20010;-79
2023/08/26 04:18:35;;;;;;;3.53;1.30;;;;;;;17.44;100.00;98011.63;15292932;19;20017;-78
2023/08/26 04:24:03;;;;;;;3.15;1.40;;;;;;;17.40;100.00;97996.78;15285334;19;20022;-78
2023/08/26 04:29:29;;;;;;;3.00;1.20;;;;;;;17.37;100.00;98000.78;15294137;19;20014;-78
2023/08/26 04:34:55;;;;;;;3.53;1.20;;;;;;;17.37;100.00;97989.03;15291694;19;20035;-78
2023/08/26 04:40:25;;;;;;;2.10;1.20;;;;;;;17.40;100.00;97989.41;15284917;19;21092;-78
2023/08/26 04:45:49;;;;;;;2.60;1.48;;;;;;;17.43;100.00;98011.84;15293042;19;20031;-79
2023/08/26 04:51:15;;;;;;;2.53;1.40;;;;;;;17.40;100.00;98019.38;15288420;19;20051;-79
2023/08/26 04:56:42;;;;;;;2.50;1.70;;;;;;;17.38;100.00;98029.66;15283095;19;20025;-79
2023/08/26 05:02:08;;;;;;;4.10;1.60;;;;;;;17.40;100.00;98045.78;15285829;19;20085;-78
2023/08/26 05:07:32;;;;;;;1.58;1.48;;;;;;;17.39;100.00;98044.09;15290359;19;20078;-78
2023/08/26 05:13:00;;;;;;;2.97;1.70;;;;;;;17.39;100.00;98058.56;15283040;19;20014;-80
2023/08/26 05:18:25;;;;;;;4.25;1.90;;;;;;;17.39;100.00;98079.50;15295532;19;20014;-79
2023/08/26 05:23:50;;;;;;;3.05;1.80;;;;;;;17.44;100.00;98100.66;15290937;19;20344;-79
2023/08/26 05:29:17;;;;;;;4.68;2.30;;;;;;;17.47;100.00;98122.84;15303036;19;20007;-79
2023/08/26 05:34:42;;;;;;;4.10;2.10;;;;;;;17.52;100.00;98128.50;15320233;19;20227;-78
2023/08/26 05:40:07;;;;;;;5.65;2.25;;;;;;;17.59;100.00;98133.06;15333099;19;20015;-80
2023/08/26 05:45:37;;;;;;;3.80;1.98;;;;;;;17.67;100.00;98138.31;15312636;19;20063;-79
2023/08/26 05:51:01;;;;;;;2.22;1.50;;;;;;;17.74;100.00;98133.66;15303870;19;20029;-78
2023/08/26 05:56:27;;;;;;;2.80;1.60;;;;;;;17.85;100.00;98133.00;15306803;19;20037;-78
2023/08/26 06:01:54;;;;;;;2.47;1.80;;;;;;;17.94;100.00;98140.91;15298075;19;20010;-80
2023/08/26 06:07:21;;;;;;;3.50;1.80;;;;;;;18.03;100.00;98145.13;15304743;19;20039;-79
2023/08/26 06:12:52;;;;;;;2.70;1.92;;;;;;;18.15;100.00;98165.19;15294174;19;20019;-79
2023/08/26 06:18:19;;;;;;;3.45;1.95;;;;;;;18.32;100.00;98186.50;15289208;19;20027;-78
2023/08/26 06:23:45;;;;;;;3.78;1.90;;;;;;;18.59;100.00;98202.72;15293520;19;20081;-79
2023/08/26 06:29:10;;;;;;;2.53;1.42;;;;;;;18.77;100.00;98221.91;15292925;19;20018;-79
2023/08/26 06:34:39;;;;;;;2.28;1.50;;;;;;;18.94;100.00;98200.41;15282132;19;20507;-78
2023/08/26 06:40:05;;;;;;;3.53;1.52;;;;;;;19.02;100.00;98184.84;15281587;19;20018;-78
2023/08/26 06:45:29;;;;;;;1.75;1.20;;;;;;;18.97;100.00;98166.41;15284581;19;20581;-80
2023/08/26 06:50:57;;;;;;;2.88;1.38;;;;;;;18.81;100.00;98186.00;15289075;19;20006;-79
2023/08/26 06:56:22;;;;;;;1.35;1.10;;;;;;;18.68;100.00;98211.50;15285359;19;20018;-79
2023/08/26 07:01:48;;;;;;;0.95;0.60;;;;;;;18.47;100.00;98214.34;15286300;19;20019;-78
2023/08/26 07:07:15;;;;;;;2.80;0.70;;;;;;;18.33;100.00;98235.38;15277288;19;20373;-79
2023/08/26 07:12:46;;;;;;;1.35;0.80;;;;;;;18.30;100.00;98243.16;15280992;19;20043;-77
2023/08/26 07:18:11;;;;;;;2.60;0.80;;;;;;;18.28;100.00;98264.38;15278630;19;20588;-77
2023/08/26 07:23:40;;;;;;;1.50;0.80;;;;;;;18.27;100.00;98289.94;15282973;19;20011;-79
2023/08/26 07:29:05;;;;;;;0.70;0.60;;;;;;;18.35;100.00;98306.06;15275904;19;20038;-79
2023/08/26 07:34:30;;;;;;;1.40;0.70;;;;;;;18.45;100.00;98322.81;15283177;19;20011;-80
2023/08/26 07:39:58;;;;;;;2.38;1.00;;;;;;;18.62;100.00;98330.53;15287509;19;20014;-78
2023/08/26 07:45:22;;;;;;;0.80;0.60;;;;;;;18.73;100.00;98329.00;15297574;19;20074;-78
2023/08/26 07:50:47;;;;;;;0.93;0.70;;;;;;;18.79;100.00;98318.06;15285446;19;20025;-79
2023/08/26 07:56:16;;;;;;;3.20;0.85;;;;;;;18.91;100.00;98309.19;15286768;19;20023;-79
2023/08/26 08:01:45;;;;;;;1.13;0.80;;;;;;;19.04;100.00;98273.66;15289244;19;20041;-83
2023/08/26 08:07:02;;;;;;;2.45;0.98;;;;;;;19.16;100.00;98229.25;15319591;19;20075;-78
2023/08/26 08:12:37;;;;;;;1.33;0.90;;;;;;;19.30;100.00;98227.25;15272822;19;20462;-78
2023/08/26 08:18:03;;;;;;;2.35;1.10;;;;;;;19.43;100.00;98202.56;15289284;19;20007;-78
2023/08/26 08:23:27;;;;;;;1.60;1.13;;;;;;;19.69;100.00;98206.09;15275849;19;20058;-77
2023/08/26 08:28:55;;;;;;;3.55;1.50;;;;;;;19.89;100.00;98096.56;15289335;19;20159;-77
2023/08/26 08:34:20;;;;;;;2.33;1.45;;;;;;;20.17;100.00;98082.31;15286510;19;20014;-78
2023/08/26 08:39:45;;;;;;;1.77;1.00;;;;;;;20.36;100.00;98043.94;15288346;19;20035;-77
2023/08/26 08:45:15;;;;;;;2.15;1.00;;;;;;;20.45;100.00;97973.31;15283221;19;20018;-77
2023/08/26 08:50:40;;;;;;;1.75;1.00;;;;;;;20.45;100.00;97979.63;15276835;19;20010;-77
2023/08/26 08:56:06;;;;;;;2.20;1.00;;;;;;;20.57;100.00;97997.94;15274609;19;20018;-77
2023/08/26 09:01:35;;;;;;;1.95;0.90;;;;;;;20.66;100.00;98002.00;15304178;19;20023;-81
2023/08/26 09:07:03;;;;;;;3.35;1.02;;;;;;;20.68;100.00;97979.84;15301127;19;20054;-81
2023/08/26 09:12:36;;;;;;;2.58;1.20;;;;;;;20.67;100.00;97961.75;15301214;19;20042;-81
2023/08/26 09:18:05;;;;;;;1.95;1.30;;;;;;;20.82;100.00;97951.19;15300857;19;20022;-81
2023/08/26 09:23:29;;;;;;;2.13;1.13;;;;;;;20.87;100.00;97956.81;15304483;19;20047;-81
2023/08/26 09:28:54;;;;;;;4.03;1.30;;;;;;;21.02;100.00;97939.03;15298627;19;20041;-81
2023/08/26 09:34:21;;;;;;;3.25;1.20;;;;;;;21.23;100.00;97937.53;15300333;19;20023;-81
2023/08/26 09:39:49;;;;;;;2.47;1.20;;;;;;;21.27;100.00;97925.03;15303683;19;20018;-80
2023/08/26 09:45:17;;;;;;;2.53;1.20;;;;;;;21.51;100.00;97927.69;15302280;19;20022;-80
2023/08/26 09:50:46;;;;;;;2.60;1.30;;;;;;;21.70;100.00;97929.19;15293384;19;20014;-82
2023/08/26 09:56:11;;;;;;;2.38;1.20;;;;;;;21.86;100.00;97916.56;15309036;19;20018;-82
2023/08/26 10:01:37;;;;;;;3.83;1.38;;;;;;;21.94;100.00;97906.25;15301333;19;20046;-82
2023/08/26 10:07:08;;;;;;;3.33;1.10;;;;;;;22.15;100.00;97900.06;15298894;19;20497;-82
2023/08/26 10:12:39;;;;;;;2.78;1.10;;;;;;;22.42;100.00;97899.38;15299747;19;20077;-82
2023/08/26 10:18:06;;;;;;;6.78;1.30;;;;;;;22.66;100.00;97901.09;15302495;19;20016;-82
2023/08/26 10:23:35;;;;;;;5.00;1.35;;;;;;;22.50;100.00;97900.06;15311965;19;20006;-82
2023/08/26 10:29:01;;;;;;;3.90;1.25;;;;;;;22.27;100.00;97899.97;15310177;19;20089;-82
2023/08/26 10:34:39;;;;;;;3.03;1.20;;;;;;;22.21;100.00;97889.16;15296882;19;20018;-83
2023/08/26 10:40:12;;;;;;;3.38;1.27;;;;;;;22.25;100.00;97890.31;15305327;19;20354;-82
2023/08/26 10:45:37;;;;;;;3.35;1.15;;;;;;;22.49;100.00;97895.66;15302388;19;20019;-82
2023/08/26 10:51:03;;;;;;;3.33;1.20;;;;;;;22.73;100.00;97888.00;15296200;19;20014;-82
2023/08/26 10:56:33;;;;;;;6.57;1.20;;;;;;;22.87;100.00;97885.75;15298299;19;20478;-81
2023/08/26 11:02:01;;;;;;;;;;;;;;;22.92;100.00;97888.53;15301375;19;20010;-82
2023/08/26 11:07:27;;;;;;;2.78;1.17;;;;;;;23.15;100.00;97871.00;15307486;19;19923;-81
2023/08/26 11:13:01;;;;;;;2.97;1.20;;;;;;;23.26;100.00;97874.69;15344206;19;20014;-80
2023/08/26 11:18:27;;;;;;;2.92;1.15;;;;;;;23.38;100.00;97869.06;15290100;19;20459;-88
2023/08/26 11:23:54;;;;;;;4.72;1.20;;;;;;;23.26;100.00;97863.69;15275360;19;20094;-86
2023/08/26 11:29:22;;;;;;;4.00;1.02;;;;;;;23.18;100.00;97875.13;15285674;19;20028;-87
2023/08/26 11:34:47;;;;;;;5.20;1.20;;;;;;;23.08;100.00;97882.16;15283649;19;20028;-86
2023/08/26 11:40:15;;;;;;;1.92;0.90;;;;;;;22.94;100.00;97886.38;15286584;19;20014;-89
2023/08/26 11:45:45;;;;;;;2.00;0.95;;;;;;;22.62;100.00;97885.13;15285291;19;20018;-89
2023/08/26 11:51:11;;;;;;;3.03;1.10;;;;;;;22.65;100.00;97889.28;15288173;19;20042;-87
2023/08/26 11:56:36;;;;;;;2.05;0.95;;;;;;;22.67;100.00;97895.34;15295110;19;20426;-87
2023/08/26 12:02:21;;;;;;;2.35;1.00;;;;;;;22.49;100.00;97882.75;15281874;19;20018;-87
2023/08/26 12:07:54;;;;;;;2.58;1.10;;;;;;;22.38;100.00;97884.50;15287305;19;20011;-87
2023/08/26 12:13:20;;;;;;;2.88;1.15;;;;;;;22.29;100.00;97896.94;15286047;19;20014;-87
2023/08/26 12:18:55;;;;;;;2.65;1.10;;;;;;;22.37;100.00;97904.78;15284664;19;20031;-87
2023/08/26 12:24:23;;;;;;;2.25;1.00;;;;;;;22.20;100.00;97912.19;15287162;19;20015;-86
2023/08/26 12:29:49;;;;;;;4.20;1.02;;;;;;;22.27;100.00;97905.44;15272438;19;20023;-89
2023/08/26 12:35:23;;;;;;;1.98;0.90;;;;;;;22.22;100.00;97910.88;15277367;19;20520;-88
2023/08/26 12:40:50;;;;;;;1.77;1.05;;;;;;;22.19;100.00;97910.50;15273824;19;20015;-87
2023/08/26 12:46:19;;;;;;;2.33;0.90;;;;;;;22.27;100.00;97904.63;15280252;19;20358;-87
2023/08/26 12:51:47;;;;;;;2.13;1.10;;;;;;;22.32;100.00;97912.91;15277487;19;20022;-87
2023/08/26 12:57:12;;;;;;;2.90;0.95;;;;;;;22.51;100.00;97915.44;15279777;19;20492;-87
2023/08/26 13:02:39;;;;;;;1.75;0.98;;;;;;;22.78;100.00;97912.81;15272197;19;20018;-87
2023/08/26 13:08:06;;;;;;;1.30;0.70;;;;;;;22.87;100.00;97924.19;15274220;19;20025;-87
2023/08/26 13:13:31;;;;;;;2.53;0.82;;;;;;;22.84;100.00;97909.03;15267590;19;20014;-86
2023/08/26 13:18:56;;;;;;;1.40;0.80;;;;;;;22.81;100.00;97908.72;15275204;19;20098;-87
2023/08/26 13:24:25;;;;;;;1.55;0.70;;;;;;;22.80;100.00;97918.88;15277948;19;20036;-88
2023/08/26 13:29:50;;;;;;;2.20;0.77;;;;;;;22.71;100.00;97915.75;14762735;19;10000138;-87
2023/08/26 13:35:15;;;;;;;2.63;0.85;;;;;;;22.53;100.00;97932.47;15278859;19;20031;-88
2023/08/26 13:40:44;;;;;;;0.70;0.60;;;;;;;22.36;100.00;97922.31;15277548;19;20369;-89
2023/08/26 13:46:15;;;;;;;2.83;0.70;;;;;;;22.26;100.00;97919.44;15278488;19;20026;-87
2023/08/26 13:51:41;;;;;;;1.70;0.80;;;;;;;22.01;100.00;97912.44;15294979;19;20093;-90
2023/08/26 13:57:13;;;;;;;1.65;0.70;;;;;;;21.93;100.00;97888.16;15305718;19;20089;-90
2023/08/26 14:02:44;;;;;;;2.67;0.80;;;;;;;21.82;100.00;97887.97;15297199;19;20066;-88
2023/08/26 14:08:02;;;;;;;0.68;0.60;;;;;;;21.73;100.00;97889.47;15292028;19;20015;-90
2023/08/26 14:13:34;;;;;;;1.92;0.77;;;;;;;21.79;100.00;97888.50;15299113;19;20003;-92
2023/08/26 14:19:00;;;;;;;2.58;0.80;;;;;;;21.76;100.00;97894.47;15302083;19;20588;-89
2023/08/26 14:24:31;;;;;;;0.57;0.57;;;;;;;21.69;100.00;97899.28;15306995;19;20041;-90
2023/08/26 14:29:51;;;;;;;1.58;0.60;;;;;;;21.60;100.00;97901.59;15303535;19;20011;-89
2023/08/26 14:35:17;;;;;;;0.70;0.52;;;;;;;21.52;100.00;97907.44;15304232;19;20022;-90
2023/08/26 14:40:44;;;;;;;2.15;0.70;;;;;;;21.48;100.00;97928.19;15303461;19;20018;-93
2023/08/26 14:46:23;;;;;;;1.25;0.70;;;;;;;21.38;100.00;97948.81;15305944;19;20022;-88
2023/08/26 14:52:22;;;;;;;2.28;0.50;;;;;;;21.33;100.00;97928.72;15287641;19;20022;-89
2023/08/26 14:57:50;;;;;;;0.50;0.50;;;;;;;21.29;100.00;97943.97;15299628;19;20014;-89
2023/08/26 15:03:14;;;;;;;1.45;0.65;;;;;;;21.20;100.00;97947.09;15298749;19;20561;-89
2023/08/26 15:08:57;;;;;;;1.65;0.60;;;;;;;21.14;100.00;97931.59;15303533;19;20670;-88
2023/08/26 15:14:55;;;;;;;1.33;0.50;;;;;;;20.97;100.00;97944.41;15296024;19;20024;-90
2023/08/26 15:20:33;;;;;;;0.82;0.40;;;;;;;20.87;100.00;97942.25;15292392;19;20544;-90
2023/08/26 15:26:18;;;;;;;1.73;0.50;;;;;;;20.79;100.00;97948.94;15293636;19;20018;-87
2023/08/26 15:32:08;;;;;;;0.50;0.50;;;;;;;20.59;100.00;97957.47;15289073;19;20018;-91
2023/08/26 15:37:39;;;;;;;1.13;0.57;;;;;;;20.38;100.00;97934.28;15293748;19;20046;-88
2023/08/26 15:49:38;;;;;;;1.02;0.40;;;;;;;20.25;100.00;97921.66;15291406;19;20047;-88
2023/08/26 15:55:04;;;;;;;0.93;0.38;;;;;;;20.19;100.00;97934.38;15285987;19;20667;-87
2023/08/26 16:01:10;;;;;;;2.65;0.50;;;;;;;20.05;100.00;97943.88;15289012;19;20442;-88
2023/08/26 16:06:35;;;;;;;0.63;0.40;;;;;;;19.99;100.00;97937.44;15289646;19;20034;-90
2023/08/26 16:12:19;;;;;;;0.60;0.40;;;;;;;19.90;100.00;97945.16;15283402;19;20706;-88
2023/08/26 16:17:44;;;;;;;0.80;0.40;;;;;;;19.90;100.00;97956.09;15281928;19;20017;-87
2023/08/26 16:23:14;;;;;;;0.60;0.50;;;;;;;19.80;100.00;97964.00;15283396;19;20018;-87
2023/08/26 16:28:32;;;;;;;0.75;0.50;;;;;;;19.78;100.00;97952.44;15280287;19;20014;-86
2023/08/26 16:33:57;;;;;;;1.25;0.50;;;;;;;19.82;100.00;97956.38;15289620;19;20015;-86
2023/08/26 16:39:26;;;;;;;0.70;0.50;;;;;;;19.75;100.00;97981.09;15285384;19;20013;-86
2023/08/26 16:44:52;;;;;;;0.30;0.30;;;;;;;19.74;100.00;97979.41;15296385;19;20074;-86
2023/08/26 16:50:17;;;;;;;0.82;0.40;;;;;;;19.71;100.00;97964.28;15298984;19;20010;-86
2023/08/26 16:55:46;;;;;;;1.85;0.73;;;;;;;19.67;100.00;97965.84;15288776;19;20019;-87
2023/08/26 17:01:12;;;;;;;1.02;0.50;;;;;;;19.64;100.00;97963.56;15307209;19;20022;-87
2023/08/26 17:06:39;;;;;;;1.88;0.60;;;;;;;19.62;100.00;97981.25;15329809;19;20011;-87
2023/08/26 17:12:12;;;;;;;0.63;0.50;;;;;;;19.56;100.00;97977.56;15331706;19;20019;-87
2023/08/26 17:18:05;;;;;;;1.27;0.50;;;;;;;19.55;100.00;97933.00;15295760;19;20481;-89
2023/08/26 17:23:31;;;;;;;1.47;0.50;;;;;;;19.54;100.00;97946.91;15299758;19;20018;-88
2023/08/26 17:29:04;;;;;;;1.00;0.50;;;;;;;19.65;100.00;97961.66;15310649;19;20021;-90
2023/08/26 17:34:29;;;;;;;1.23;0.65;;;;;;;19.76;100.00;97984.63;15310548;19;20017;-84
2023/08/26 17:39:59;;;;;;;0.82;0.50;;;;;;;19.96;100.00;97990.69;15309080;19;20034;-85
2023/08/26 17:45:33;;;;;;;1.83;0.52;;;;;;;19.96;100.00;97987.94;15309382;19;20025;-86
2023/08/26 17:51:04;;;;;;;1.35;0.40;;;;;;;19.95;100.00;97972.59;15313221;19;20022;-87
2023/08/26 17:56:33;;;;;;;0.52;0.43;;;;;;;19.94;100.00;97978.31;15315780;19;20034;-87
2023/08/26 18:01:53;;;;;;;1.10;0.60;;;;;;;19.97;100.00;97977.84;15313570;19;20014;-90
2023/08/26 18:07:23;;;;;;;0.95;0.50;;;;;;;19.93;100.00;97972.03;15327073;19;20035;-85
2023/08/26 18:12:44;;;;;;;0.85;0.43;;;;;;;19.83;100.00;97980.75;15313904;19;20010;-83
2023/08/26 18:18:12;;;;;;;0.82;0.50;;;;;;;19.71;100.00;97966.22;15316384;19;20018;-88
2023/08/26 18:23:37;;;;;;;0.30;0.30;;;;;;;19.68;100.00;97978.44;15311894;19;20029;-85
2023/08/26 18:29:03;;;;;;;0.70;0.40;;;;;;;19.62;100.00;97960.22;15316261;19;20096;-85
2023/08/26 18:34:45;;;;;;;1.75;0.50;;;;;;;19.52;100.00;97954.47;15304102;19;20038;-85
2023/08/26 18:40:11;;;;;;;1.13;0.40;;;;;;;19.38;100.00;97937.44;15315004;19;20018;-86
2023/08/26 18:45:36;;;;;;;1.83;0.50;;;;;;;19.23;100.00;97935.94;15315278;19;20039;-85
2023/08/26 18:51:06;;;;;;;0.82;0.40;;;;;;;19.16;100.00;97950.75;15313498;19;20015;-85
2023/08/26 18:56:40;;;;;;;1.05;0.50;;;;;;;19.05;100.00;97953.16;15305557;19;20018;-86
2023/08/26 19:02:06;;;;;;;0.82;0.50;;;;;;;18.97;100.00;97958.94;15309621;19;20026;-85
2023/08/26 19:07:35;;;;;;;0.68;0.40;;;;;;;18.94;100.00;97967.56;15308093;19;20018;-86
2023/08/26 19:13:06;;;;;;;1.88;0.70;;;;;;;18.87;100.00;97980.44;15309507;19;20019;-86
2023/08/26 19:18:22;;;;;;;0.82;0.45;;;;;;;18.89;100.00;97991.94;15315082;19;20042;-86
2023/08/26 19:23:51;;;;;;;0.55;0.40;;;;;;;18.87;100.00;97999.53;15296724;19;20018;-87
2023/08/26 19:29:18;;;;;;;0.75;0.40;;;;;;;18.87;100.00;98013.19;15315930;19;20017;-88
2023/08/26 19:34:45;;;;;;;1.63;0.50;;;;;;;18.85;100.00;98012.56;15318560;19;20010;-86
2023/08/26 19:46:24;;;;;;;1.55;0.50;;;;;;;18.81;100.00;98017.66;15376682;19;19979;-94
2023/08/26 19:52:11;;;;;;;1.13;0.68;;;;;;;18.75;100.00;98019.38;15347158;19;20014;-83
2023/08/26 19:57:40;;;;;;;1.30;0.60;;;;;;;18.68;100.00;98015.88;15311698;19;20017;-82
2023/08/26 20:03:12;;;;;;;0.77;0.52;;;;;;;18.63;100.00;98013.00;15306822;19;20021;-83
2023/08/26 20:08:36;;;;;;;1.25;0.50;;;;;;;18.56;100.00;98010.31;15302667;19;20474;-84
2023/08/26 20:14:02;;;;;;;1.30;0.82;;;;;;;18.52;100.00;98014.53;15294199;19;20444;-84
2023/08/26 20:19:30;;;;;;;0.88;0.60;;;;;;;18.46;100.00;98012.72;15301020;19;20027;-84
2023/08/26 20:24:56;;;;;;;0.82;0.60;;;;;;;18.41;100.00;98015.28;15309879;19;20022;-84
2023/08/26 20:30:24;;;;;;;0.80;0.50;;;;;;;18.37;100.00;98005.84;15309984;19;20014;-83
2023/08/26 20:35:52;;;;;;;0.95;0.50;;;;;;;18.30;100.00;97995.84;15305780;19;20089;-83
2023/08/26 20:41:17;;;;;;;1.05;0.60;;;;;;;18.23;100.00;97999.69;15299314;19;20025;-84
2023/08/26 20:46:43;;;;;;;1.08;0.60;;;;;;;18.16;100.00;98010.63;15288571;19;20026;-84
2023/08/26 20:52:12;;;;;;;0.75;0.50;;;;;;;18.06;100.00;98013.81;15311378;19;20407;-86
2023/08/26 20:57:37;;;;;;;0.98;0.55;;;;;;;17.99;100.00;98011.16;15351970;19;20087;-84
2023/08/26 21:03:03;;;;;;;2.03;0.68;;;;;;;17.95;100.00;98017.22;15298668;19;20019;-84
2023/08/26 21:08:30;;;;;;;0.98;0.60;;;;;;;17.87;100.00;98021.88;15295938;19;20022;-84
2023/08/26 21:13:55;;;;;;;2.88;0.65;;;;;;;17.75;100.00;98031.81;15289273;19;20031;-85
2023/08/26 21:19:20;;;;;;;0.77;0.50;;;;;;;17.66;100.00;98033.13;15291055;19;20491;-84
2023/08/26 21:24:47;;;;;;;0.95;0.50;;;;;;;17.56;100.00;98036.28;15296074;19;20015;-84
2023/08/26 21:30:13;;;;;;;0.60;0.55;;;;;;;17.46;100.00;98036.78;15288885;19;20538;-85
2023/08/26 21:35:38;;;;;;;1.02;0.60;;;;;;;17.36;100.00;98037.22;15291857;19;20378;-86
2023/08/26 21:41:12;;;;;;;1.92;0.70;;;;;;;17.30;100.00;98027.16;15292002;19;20018;-87
2023/08/26 21:46:36;;;;;;;2.75;0.65;;;;;;;17.21;100.00;98028.47;15292848;19;20097;-84
2023/08/26 21:52:02;;;;;;;2.15;0.85;;;;;;;17.15;100.00;98035.59;15288636;19;20323;-84
2023/08/26 21:57:31;;;;;;;2.15;0.70;;;;;;;17.06;100.00;98034.97;15288422;19;20553;-84
2023/08/26 22:02:57;;;;;;;1.00;0.70;;;;;;;17.02;100.00;98041.06;15286694;19;20023;-84
2023/08/26 22:08:23;;;;;;;1.60;0.80;;;;;;;16.96;100.00;98053.63;15295892;19;20022;-84
2023/08/26 22:13:51;;;;;;;0.82;0.55;;;;;;;16.91;100.00;98046.06;15308435;19;20409;-86
2023/08/26 22:19:16;;;;;;;1.27;0.70;;;;;;;16.87;100.00;98039.41;15299015;19;21185;-86
2023/08/26 22:24:40;;;;;;;1.10;0.60;;;;;;;16.83;100.00;98031.84;15307703;19;20653;-84
2023/08/26 22:30:09;;;;;;;1.15;0.65;;;;;;;16.76;100.00;98020.97;15304856;19;20042;-84
2023/08/26 22:35:34;;;;;;;1.20;0.60;;;;;;;16.72;100.00;98025.19;15304233;19;20414;-84
2023/08/26 22:41:00;;;;;;;2.05;0.80;;;;;;;16.67;100.00;98028.53;15300863;19;20057;-84
2023/08/26 22:46:27;;;;;;;1.98;0.65;;;;;;;16.60;100.00;98033.97;15304516;19;20027;-85
2023/08/26 22:51:51;;;;;;;1.20;0.63;;;;;;;16.53;100.00;98024.16;15294276;19;20465;-85
2023/08/26 22:57:17;;;;;;;1.92;0.73;;;;;;;16.42;100.00;98025.59;15296376;19;20021;-86
2023/08/26 23:02:45;;;;;;;2.35;0.85;;;;;;;16.39;100.00;98017.88;15298629;19;20011;-85
2023/08/26 23:08:10;;;;;;;1.30;0.75;;;;;;;16.38;100.00;98013.50;15301863;19;20022;-86
2023/08/26 23:13:36;;;;;;;1.20;0.77;;;;;;;16.33;100.00;98006.78;15290622;19;20015;-82
2023/08/26 23:19:04;;;;;;;2.20;0.70;;;;;;;16.28;100.00;98008.47;15298253;19;20024;-84
2023/08/26 23:24:29;;;;;;;1.52;0.70;;;;;;;16.18;100.00;97997.97;15295086;19;20038;-84
2023/08/26 23:29:54;;;;;;;1.02;0.77;;;;;;;16.11;100.00;97967.25;15299971;19;20096;-85
2023/08/26 23:35:22;;;;;;;5.32;1.00;;;;;;;16.07;100.00;97994.03;15299244;19;20019;-84
2023/08/26 23:40:48;;;;;;;1.13;0.82;;;;;;;16.04;100.00;97990.88;15300134;19;20026;-83
2023/08/26 23:46:12;;;;;;;2.15;0.90;;;;;;;16.01;100.00;97984.81;15294967;19;20011;-84
2023/08/26 23:51:40;;;;;;;0.80;0.80;;;;;;;15.95;100.00;97988.34;15297263;19;20014;-84
2023/08/26 23:57:06;;;;;;;1.48;0.90;;;;;;;15.91;100.00;97978.97;15293401;19;20458;-84
